Time;durP1;ratioP1;P1;durP2;ratioP2;P2;SDS_P1;SDS_P2;PMS_P1;PMS_P2;Temp;Humidity;BMP_temperature;BMP_pressure;BME280_temperature;BME280_humidity;BME280_pressure;Samples;Min_cycle;Max_cycle;Signal;HPM_P1;HPM_P2
2023/06/19 00:00:06;;;;;;;11.25;7.07;;;;;;;;;;5095476;28;20099;-70
2023/06/19 00:02:32;;;;;;;10.90;6.57;;;;;;;;;;5095618;28;20039;-72
2023/06/19 00:04:58;;;;;;;10.90;6.30;;;;;;;;;;5095530;28;20024;-68
2023/06/19 00:07:23;;;;;;;10.10;6.60;;;;;;;;;;5095387;28;20028;-73
2023/06/19 00:09:48;;;;;;;8.98;6.85;;;;;;;;;;5095404;28;20059;-68
2023/06/19 00:12:14;;;;;;;6.88;5.82;;;;;;;;;;5095509;28;20052;-74
2023/06/19 00:14:39;;;;;;;8.75;6.38;;;;;;;;;;5095193;28;20536;-72
2023/06/19 00:17:05;;;;;;;9.60;6.85;;;;;;;;;;5095239;28;20031;-75
2023/06/19 00:19:35;;;;;;;9.02;6.50;;;;;;;;;;5095319;28;20550;-72
2023/06/19 00:22:02;;;;;;;10.38;6.53;;;;;;;;;;5095369;28;20047;-68
2023/06/19 00:24:28;;;;;;;11.65;7.18;;;;;;;;;;5095264;28;20031;-73
2023/06/19 00:26:53;;;;;;;9.90;6.85;;;;;;;;;;5095234;28;20032;-74
2023/06/19 00:29:19;;;;;;;8.27;6.47;;;;;;;;;;5094908;28;20059;-66
2023/06/19 00:31:44;;;;;;;11.57;6.95;;;;;;;;;;5095143;28;20099;-75
2023/06/19 00:34:10;;;;;;;9.82;6.95;;;;;;;;;;5095189;28;20036;-75
2023/06/19 00:36:40;;;;;;;8.43;6.80;;;;;;;;;;5094919;28;20385;-68
2023/06/19 00:39:07;;;;;;;9.30;7.35;;;;;;;;;;5100858;28;20038;-70
2023/06/19 00:41:35;;;;;;;10.60;6.78;;;;;;;;;;5097013;28;20114;-73
2023/06/19 00:44:00;;;;;;;9.25;6.72;;;;;;;;;;5114985;28;20031;-71
2023/06/19 00:46:26;;;;;;;9.38;6.35;;;;;;;;;;5096526;28;20138;-70
2023/06/19 00:48:51;;;;;;;9.75;6.75;;;;;;;;;;5115093;28;20027;-67
2023/06/19 00:51:17;;;;;;;11.48;6.82;;;;;;;;;;5107143;28;20028;-69
2023/06/19 00:53:42;;;;;;;11.55;7.18;;;;;;;;;;5094637;28;20027;-72
2023/06/19 00:56:08;;;;;;;8.55;7.15;;;;;;;;;;5094755;28;20023;-68
2023/06/19 00:58:35;;;;;;;11.10;9.13;;;;;;;;;;5094467;28;20032;-69
2023/06/19 01:01:00;;;;;;;14.07;10.70;;;;;;;;;;5094508;28;20397;-69
2023/06/19 01:03:26;;;;;;;24.25;17.02;;;;;;;;;;5094578;28;20015;-70
2023/06/19 01:05:54;;;;;;;23.98;18.50;;;;;;;;;;5094412;28;20377;-70
2023/06/19 01:08:43;;;;;;;25.40;19.83;;;;;;;;;;5094359;28;20021;-75
2023/06/19 01:11:11;;;;;;;26.88;21.02;;;;;;;;;;5094422;28;20059;-73
2023/06/19 01:13:50;;;;;;;29.60;21.58;;;;;;;;;;5094302;28;20024;-75
2023/06/19 01:16:16;;;;;;;31.03;21.43;;;;;;;;;;5094412;28;20020;-75
2023/06/19 01:18:42;;;;;;;22.13;16.05;;;;;;;;;;5094223;28;20351;-74
2023/06/19 01:21:18;;;;;;;17.98;12.93;;;;;;;;;;5094289;28;20055;-68
2023/06/19 01:23:45;;;;;;;22.38;16.08;;;;;;;;;;5094241;28;20028;-75
2023/06/19 01:26:11;;;;;;;16.42;12.82;;;;;;;;;;5093910;28;20389;-75
2023/06/19 01:28:40;;;;;;;18.75;13.50;;;;;;;;;;5094101;28;20047;-73
2023/06/19 01:31:11;;;;;;;16.70;11.98;;;;;;;;;;5094001;28;20023;-75
2023/06/19 01:33:39;;;;;;;15.98;12.50;;;;;;;;;;5093999;28;20028;-72
2023/06/19 01:36:07;;;;;;;17.05;11.20;;;;;;;;;;5093961;28;20019;-72
2023/06/19 01:38:33;;;;;;;13.18;10.60;;;;;;;;;;5095140;28;20031;-71
2023/06/19 01:41:00;;;;;;;14.13;10.10;;;;;;;;;;5103865;28;20022;-75
2023/06/19 01:43:27;;;;;;;12.60;9.88;;;;;;;;;;5093891;28;20047;-73
2023/06/19 01:45:53;;;;;;;16.58;10.20;;;;;;;;;;5093538;28;20040;-75
2023/06/19 01:48:18;;;;;;;14.25;9.95;;;;;;;;;;5093632;28;20383;-73
2023/06/19 01:50:48;;;;;;;13.30;10.05;;;;;;;;;;5093861;28;20027;-75
2023/06/19 01:53:14;;;;;;;11.70;9.03;;;;;;;;;;5093678;28;20529;-75
2023/06/19 01:55:39;;;;;;;16.52;9.20;;;;;;;;;;5093404;28;20116;-73
2023/06/19 01:58:05;;;;;;;15.40;8.90;;;;;;;;;;5093676;28;20056;-71
2023/06/19 02:00:32;;;;;;;11.63;8.80;;;;;;;;;;5093465;28;20035;-66
2023/06/19 02:02:57;;;;;;;14.70;9.05;;;;;;;;;;5093535;28;20020;-70
2023/06/19 02:05:23;;;;;;;12.80;9.05;;;;;;;;;;5093561;28;20046;-75
2023/06/19 02:07:48;;;;;;;9.60;8.10;;;;;;;;;;5093257;28;20153;-75
2023/06/19 02:10:13;;;;;;;10.95;8.05;;;;;;;;;;5093220;28;20073;-67
2023/06/19 02:12:39;;;;;;;14.95;8.35;;;;;;;;;;5092755;28;20356;-70
2023/06/19 02:15:05;;;;;;;12.15;8.65;;;;;;;;;;5093432;28;20480;-74
2023/06/19 02:17:30;;;;;;;11.40;8.55;;;;;;;;;;5093349;28;20034;-75
2023/06/19 02:19:56;;;;;;;12.43;9.23;;;;;;;;;;5093176;28;20424;-73
2023/06/19 02:22:21;;;;;;;15.07;8.80;;;;;;;;;;5093108;28;20024;-74
2023/06/19 02:24:47;;;;;;;10.88;8.85;;;;;;;;;;5092865;28;20373;-75
2023/06/19 02:27:12;;;;;;;11.77;8.93;;;;;;;;;;5092921;28;20430;-74
2023/06/19 02:29:37;;;;;;;10.88;8.50;;;;;;;;;;5093101;28;20354;-75
2023/06/19 02:32:03;;;;;;;10.38;8.10;;;;;;;;;;5093074;28;20062;-74
2023/06/19 02:34:29;;;;;;;10.23;8.18;;;;;;;;;;5092992;28;20465;-69
2023/06/19 02:36:54;;;;;;;11.68;8.07;;;;;;;;;;5092802;28;20103;-69
2023/06/19 02:39:20;;;;;;;12.73;8.18;;;;;;;;;;5100714;28;20425;-73
2023/06/19 02:41:46;;;;;;;10.57;7.35;;;;;;;;;;5113214;28;20417;-72
2023/06/19 02:44:13;;;;;;;9.68;7.70;;;;;;;;;;5113123;28;20024;-71
2023/06/19 02:46:39;;;;;;;10.45;7.22;;;;;;;;;;5112722;28;20504;-69
2023/06/19 02:49:04;;;;;;;9.85;7.47;;;;;;;;;;5113122;28;20031;-70
2023/06/19 02:51:29;;;;;;;10.82;7.55;;;;;;;;;;5103400;28;20120;-74
2023/06/19 02:53:55;;;;;;;9.30;7.55;;;;;;;;;;5092524;28;20032;-72
2023/06/19 02:56:20;;;;;;;11.20;7.80;;;;;;;;;;5092722;28;20045;-69
2023/06/19 02:58:46;;;;;;;11.18;7.97;;;;;;;;;;5092491;28;20103;-69
2023/06/19 03:01:11;;;;;;;12.82;8.13;;;;;;;;;;5092794;28;20351;-68
2023/06/19 03:03:37;;;;;;;14.85;8.13;;;;;;;;;;5092562;28;20013;-72
2023/06/19 03:06:07;;;;;;;18.50;12.02;;;;;;;;;;5092555;28;20027;-66
2023/06/19 03:08:35;;;;;;;15.60;9.90;;;;;;;;;;5092541;28;20096;-75
2023/06/19 03:11:04;;;;;;;12.55;9.43;;;;;;;;;;5092589;28;20097;-71
2023/06/19 03:13:31;;;;;;;11.70;8.40;;;;;;;;;;5092666;28;20020;-69
2023/06/19 03:15:57;;;;;;;14.95;8.27;;;;;;;;;;5092633;28;20031;-75
2023/06/19 03:18:22;;;;;;;13.88;8.05;;;;;;;;;;5092400;28;20017;-75
2023/06/19 03:20:48;;;;;;;13.07;8.15;;;;;;;;;;5092301;28;20020;-73
2023/06/19 03:23:13;;;;;;;11.73;7.47;;;;;;;;;;5093463;28;20016;-75
2023/06/19 03:25:42;;;;;;;11.27;7.13;;;;;;;;;;5096486;28;20056;-68
2023/06/19 03:28:08;;;;;;;11.90;7.32;;;;;;;;;;5096306;28;20032;-71
2023/06/19 03:30:33;;;;;;;10.95;7.65;;;;;;;;;;5096325;28;20050;-72
2023/06/19 03:32:59;;;;;;;8.73;7.32;;;;;;;;;;5096347;28;20032;-69
2023/06/19 03:35:24;;;;;;;11.38;7.63;;;;;;;;;;5096446;28;20032;-66
2023/06/19 03:37:50;;;;;;;11.68;7.80;;;;;;;;;;5095805;28;20043;-71
2023/06/19 03:40:15;;;;;;;13.65;9.55;;;;;;;;;;5112060;28;20031;-66
2023/06/19 03:42:41;;;;;;;15.45;7.68;;;;;;;;;;5116538;28;20434;-66
2023/06/19 03:45:07;;;;;;;12.80;7.75;;;;;;;;;;5116341;28;20106;-72
2023/06/19 03:47:32;;;;;;;9.73;7.75;;;;;;;;;;5116458;28;20024;-67
2023/06/19 03:49:58;;;;;;;17.15;8.48;;;;;;;;;;5116666;28;20028;-67
2023/06/19 03:52:23;;;;;;;27.35;18.38;;;;;;;;;;5098904;28;20036;-66
2023/06/19 03:54:49;;;;;;;13.82;8.65;;;;;;;;;;5096096;28;20531;-69
2023/06/19 03:57:15;;;;;;;12.35;8.20;;;;;;;;;;5095631;28;20024;-66
2023/06/19 03:59:40;;;;;;;12.25;8.15;;;;;;;;;;5095892;28;20074;-72
2023/06/19 04:02:06;;;;;;;10.02;7.57;;;;;;;;;;5095814;28;20077;-67
2023/06/19 04:04:31;;;;;;;10.85;7.50;;;;;;;;;;5095646;28;20024;-68
2023/06/19 04:06:58;;;;;;;9.35;7.68;;;;;;;;;;5095429;28;20484;-75
2023/06/19 04:09:24;;;;;;;9.30;7.93;;;;;;;;;;5095689;28;20024;-75
2023/06/19 04:11:50;;;;;;;9.88;8.05;;;;;;;;;;5095455;28;20078;-75
2023/06/19 04:14:15;;;;;;;13.57;8.10;;;;;;;;;;5095727;28;20028;-70
2023/06/19 04:16:40;;;;;;;10.23;8.02;;;;;;;;;;5095444;28;20130;-74
2023/06/19 04:19:06;;;;;;;9.82;8.10;;;;;;;;;;5095496;28;20478;-75
2023/06/19 04:21:31;;;;;;;10.18;7.72;;;;;;;;;;5095254;28;20024;-68
2023/06/19 04:23:57;;;;;;;12.77;8.00;;;;;;;;;;5095476;28;20023;-68
2023/06/19 04:26:24;;;;;;;12.35;8.13;;;;;;;;;;5095227;28;20118;-66
2023/06/19 04:28:49;;;;;;;10.32;7.88;;;;;;;;;;5095361;28;20114;-70
2023/06/19 04:31:17;;;;;;;8.73;7.40;;;;;;;;;;5095238;28;20024;-75
2023/06/19 04:33:43;;;;;;;11.68;8.30;;;;;;;;;;5095192;28;20074;-73
2023/06/19 04:36:09;;;;;;;9.38;7.95;;;;;;;;;;5075970;28;20131;-72
2023/06/19 04:38:35;;;;;;;12.25;8.93;;;;;;;;;;5096266;28;20051;-75
2023/06/19 04:41:00;;;;;;;10.90;7.85;;;;;;;;;;5115634;28;20473;-74
2023/06/19 04:43:26;;;;;;;12.20;8.50;;;;;;;;;;5115334;28;20031;-70
2023/06/19 04:45:51;;;;;;;11.40;7.78;;;;;;;;;;5115038;28;20047;-70
2023/06/19 04:48:16;;;;;;;12.10;8.55;;;;;;;;;;5115129;28;20026;-70
2023/06/19 04:50:42;;;;;;;8.60;7.65;;;;;;;;;;5112087;28;20047;-74
2023/06/19 04:53:07;;;;;;;9.88;8.00;;;;;;;;;;5094791;28;20055;-75
2023/06/19 04:55:33;;;;;;;11.50;8.02;;;;;;;;;;5094692;28;20024;-75
2023/06/19 04:57:59;;;;;;;11.52;8.13;;;;;;;;;;5094696;28;20047;-72
2023/06/19 05:00:24;;;;;;;10.27;8.48;;;;;;;;;;5094687;28;20458;-70
2023/06/19 05:02:50;;;;;;;10.57;7.85;;;;;;;;;;5094686;28;20028;-73
2023/06/19 05:05:16;;;;;;;9.95;7.80;;;;;;;;;;5094330;28;20435;-69
2023/06/19 05:07:42;;;;;;;9.38;7.95;;;;;;;;;;5094432;28;20032;-72
2023/06/19 05:10:08;;;;;;;11.05;8.00;;;;;;;;;;5094373;28;20032;-74
2023/06/19 05:12:34;;;;;;;13.88;8.50;;;;;;;;;;5094405;28;20039;-67
2023/06/19 05:15:00;;;;;;;11.43;8.70;;;;;;;;;;5094396;28;20032;-74
2023/06/19 05:17:26;;;;;;;12.68;8.00;;;;;;;;;;5093080;28;20058;-75
2023/06/19 05:19:51;;;;;;;11.02;8.15;;;;;;;;;;5089902;28;20037;-70
2023/06/19 05:22:18;;;;;;;10.00;8.32;;;;;;;;;;5077866;28;20032;-74
2023/06/19 05:24:44;;;;;;;11.25;8.77;;;;;;;;;;5073812;28;20103;-73
2023/06/19 05:27:09;;;;;;;10.40;8.20;;;;;;;;;;5086061;28;20115;-73
2023/06/19 05:29:35;;;;;;;10.38;8.50;;;;;;;;;;5094058;28;20025;-74
2023/06/19 05:32:00;;;;;;;10.15;7.80;;;;;;;;;;5093873;28;20038;-73
2023/06/19 05:34:26;;;;;;;10.57;7.88;;;;;;;;;;5093687;28;20107;-74
2023/06/19 05:36:51;;;;;;;12.30;8.70;;;;;;;;;;5093413;28;20071;-73
2023/06/19 05:39:18;;;;;;;10.63;8.80;;;;;;;;;;5101168;28;20058;-73
2023/06/19 05:41:45;;;;;;;10.50;8.93;;;;;;;;;;5113976;28;20473;-73
2023/06/19 05:44:15;;;;;;;13.93;8.75;;;;;;;;;;5114090;28;20031;-74
2023/06/19 05:46:41;;;;;;;11.00;8.23;;;;;;;;;;5112855;28;20051;-73
2023/06/19 05:49:06;;;;;;;17.17;9.40;;;;;;;;;;5113775;28;20445;-67
2023/06/19 05:51:32;;;;;;;11.65;8.07;;;;;;;;;;5103983;28;20114;-67
2023/06/19 05:54:03;;;;;;;11.15;8.60;;;;;;;;;;5093528;28;20055;-72
2023/06/19 05:56:29;;;;;;;11.18;8.45;;;;;;;;;;5093625;28;20107;-76
2023/06/19 05:58:54;;;;;;;11.93;8.63;;;;;;;;;;5093566;28;20127;-75
2023/06/19 06:01:19;;;;;;;14.77;9.02;;;;;;;;;;5093382;28;20443;-75
2023/06/19 06:03:45;;;;;;;10.48;8.15;;;;;;;;;;5087669;28;20020;-70
2023/06/19 06:06:11;;;;;;;13.13;8.32;;;;;;;;;;5075032;28;20025;-73
2023/06/19 06:08:36;;;;;;;18.35;8.98;;;;;;;;;;5092879;28;20039;-68
2023/06/19 06:11:02;;;;;;;17.17;8.57;;;;;;;;;;5086955;28;20051;-70
2023/06/19 06:13:27;;;;;;;14.30;8.75;;;;;;;;;;5072946;28;20025;-72
2023/06/19 06:15:53;;;;;;;14.75;8.75;;;;;;;;;;5085180;28;20020;-68
2023/06/19 06:18:19;;;;;;;14.68;8.95;;;;;;;;;;5093020;28;20028;-72
2023/06/19 06:20:44;;;;;;;15.45;9.25;;;;;;;;;;5092918;28;20080;-70
2023/06/19 06:23:10;;;;;;;17.75;8.90;;;;;;;;;;5092815;28;20191;-73
2023/06/19 06:25:35;;;;;;;17.75;9.00;;;;;;;;;;5093086;28;20529;-70
2023/06/19 06:28:01;;;;;;;14.43;7.97;;;;;;;;;;5092447;28;20028;-68
2023/06/19 06:30:27;;;;;;;14.23;8.85;;;;;;;;;;5092727;28;20028;-70
2023/06/19 06:32:53;;;;;;;14.80;8.15;;;;;;;;;;5093072;28;20069;-74
2023/06/19 06:35:18;;;;;;;10.48;7.57;;;;;;;;;;5092726;28;20165;-73
2023/06/19 06:37:45;;;;;;;9.38;7.32;;;;;;;;;;5092452;28;20020;-73
2023/06/19 06:40:11;;;;;;;12.88;7.47;;;;;;;;;;5107948;28;20081;-73
2023/06/19 06:42:38;;;;;;;14.50;7.82;;;;;;;;;;5113051;28;20024;-73
2023/06/19 06:45:07;;;;;;;12.25;8.25;;;;;;;;;;5112585;28;20077;-73
2023/06/19 06:47:34;;;;;;;16.60;8.30;;;;;;;;;;5113028;28;20038;-73
2023/06/19 06:50:00;;;;;;;16.98;8.68;;;;;;;;;;5112842;28;20050;-73
2023/06/19 06:52:25;;;;;;;16.50;8.07;;;;;;;;;;5094568;28;20473;-73
2023/06/19 06:54:51;;;;;;;14.73;8.20;;;;;;;;;;5112905;28;20033;-71
2023/06/19 06:57:16;;;;;;;13.18;7.63;;;;;;;;;;5112896;28;20022;-73
2023/06/19 06:59:42;;;;;;;10.60;7.45;;;;;;;;;;5112328;28;20058;-73
2023/06/19 07:02:07;;;;;;;12.60;7.53;;;;;;;;;;5112815;28;20028;-73
2023/06/19 07:04:33;;;;;;;11.48;7.53;;;;;;;;;;5097571;28;20512;-67
2023/06/19 07:06:58;;;;;;;12.30;7.53;;;;;;;;;;5092336;28;20024;-69
2023/06/19 07:09:24;;;;;;;12.27;7.78;;;;;;;;;;5092282;28;20024;-68
2023/06/19 07:11:49;;;;;;;9.80;7.55;;;;;;;;;;5092257;28;20492;-69
2023/06/19 07:14:17;;;;;;;11.27;7.60;;;;;;;;;;5092071;28;20027;-66
2023/06/19 07:16:45;;;;;;;10.63;7.43;;;;;;;;;;5094360;28;20027;-73
2023/06/19 07:19:10;;;;;;;9.45;7.20;;;;;;;;;;5074811;28;20205;-73
2023/06/19 07:21:36;;;;;;;10.48;7.18;;;;;;;;;;5092308;28;20128;-67
2023/06/19 07:24:01;;;;;;;12.10;8.10;;;;;;;;;;5092012;28;20024;-70
2023/06/19 07:26:27;;;;;;;13.32;7.30;;;;;;;;;;5091917;28;20450;-67
2023/06/19 07:28:53;;;;;;;9.27;7.32;;;;;;;;;;5074074;28;20469;-72
2023/06/19 07:31:18;;;;;;;9.90;7.32;;;;;;;;;;5092142;28;20032;-70
2023/06/19 07:33:44;;;;;;;9.75;7.32;;;;;;;;;;5092126;28;20035;-73
2023/06/19 07:36:13;;;;;;;10.27;7.00;;;;;;;;;;5092023;28;20179;-70
2023/06/19 07:38:40;;;;;;;10.65;7.10;;;;;;;;;;5094174;28;20020;-73
2023/06/19 07:41:07;;;;;;;12.85;7.60;;;;;;;;;;5112325;28;20042;-72
2023/06/19 07:43:32;;;;;;;14.30;6.80;;;;;;;;;;5112233;28;20024;-74
2023/06/19 07:45:58;;;;;;;11.07;7.32;;;;;;;;;;5111992;28;20401;-71
2023/06/19 07:48:24;;;;;;;15.40;7.35;;;;;;;;;;5112383;28;20026;-73
2023/06/19 07:50:50;;;;;;;10.57;7.55;;;;;;;;;;5112247;28;20442;-73
2023/06/19 07:53:15;;;;;;;14.85;8.25;;;;;;;;;;5112374;28;20519;-72
2023/06/19 07:55:41;;;;;;;9.45;7.35;;;;;;;;;;5112309;28;20020;-73
2023/06/19 07:58:07;;;;;;;9.55;7.05;;;;;;;;;;5112061;28;20027;-72
2023/06/19 08:00:32;;;;;;;11.85;7.38;;;;;;;;;;5112351;28;20028;-73
2023/06/19 08:02:58;;;;;;;8.07;7.28;;;;;;;;;;5110441;28;20026;-73
2023/06/19 08:05:23;;;;;;;13.45;7.47;;;;;;;;;;5091952;28;20052;-73
2023/06/19 08:07:49;;;;;;;9.07;7.40;;;;;;;;;;5091556;28;20042;-72
2023/06/19 08:10:14;;;;;;;10.75;7.38;;;;;;;;;;5092135;28;20086;-73
2023/06/19 08:12:44;;;;;;;10.93;7.03;;;;;;;;;;5074950;28;20036;-72
2023/06/19 08:15:10;;;;;;;9.05;7.15;;;;;;;;;;5081746;28;20054;-71
2023/06/19 08:17:36;;;;;;;10.98;8.07;;;;;;;;;;5077148;28;20020;-73
2023/06/19 08:20:05;;;;;;;9.40;6.97;;;;;;;;;;5095123;28;20104;-72
2023/06/19 08:22:30;;;;;;;14.35;7.22;;;;;;;;;;5095232;28;20054;-70
2023/06/19 08:24:56;;;;;;;10.35;7.18;;;;;;;;;;5094885;28;20024;-68
2023/06/19 08:27:21;;;;;;;9.40;6.88;;;;;;;;;;5094591;28;20424;-73
2023/06/19 08:29:47;;;;;;;13.60;7.75;;;;;;;;;;5095120;28;20024;-70
2023/06/19 08:32:12;;;;;;;10.00;7.03;;;;;;;;;;5095046;28;20024;-72
2023/06/19 08:34:38;;;;;;;9.32;7.05;;;;;;;;;;5095035;28;20028;-73
2023/06/19 08:37:04;;;;;;;10.95;7.15;;;;;;;;;;5094862;28;20496;-69
2023/06/19 08:39:30;;;;;;;9.18;7.22;;;;;;;;;;5104358;28;20473;-73
2023/06/19 08:41:56;;;;;;;7.47;6.18;;;;;;;;;;5114973;28;20034;-73
2023/06/19 08:44:21;;;;;;;9.68;6.95;;;;;;;;;;5115124;28;20023;-73
2023/06/19 08:46:47;;;;;;;11.23;7.20;;;;;;;;;;5114979;28;20127;-73
2023/06/19 08:49:13;;;;;;;9.73;6.85;;;;;;;;;;5115169;28;20031;-70
2023/06/19 08:51:40;;;;;;;8.68;7.15;;;;;;;;;;5115164;28;20441;-73
2023/06/19 08:54:07;;;;;;;7.32;6.40;;;;;;;;;;5115062;28;20042;-73
2023/06/19 08:56:34;;;;;;;7.50;6.70;;;;;;;;;;5114729;28;20114;-73
2023/06/19 08:59:17;;;;;;;7.63;6.60;;;;;;;;;;5114958;28;20027;-73
2023/06/19 09:01:53;;;;;;;6.70;6.00;;;;;;;;;;5114890;28;20419;-72
2023/06/19 09:04:21;;;;;;;7.22;6.18;;;;;;;;;;5101771;28;20028;-73
2023/06/19 09:07:00;;;;;;;9.10;6.43;;;;;;;;;;5094332;28;20019;-73
2023/06/19 09:09:26;;;;;;;8.32;6.90;;;;;;;;;;5094411;28;20099;-74
2023/06/19 09:11:59;;;;;;;8.15;6.45;;;;;;;;;;5094025;28;20054;-74
2023/06/19 09:14:45;;;;;;;7.80;6.22;;;;;;;;;;5094159;28;20496;-76
2023/06/19 09:17:19;;;;;;;6.57;5.57;;;;;;;;;;5094105;28;20036;-76
2023/06/19 09:19:52;;;;;;;7.28;5.95;;;;;;;;;;5077099;28;20099;-76
2023/06/19 09:22:20;;;;;;;8.48;5.88;;;;;;;;;;5093970;28;20041;-76
2023/06/19 09:24:46;;;;;;;10.60;6.15;;;;;;;;;;5093376;28;20023;-75
2023/06/19 09:27:14;;;;;;;7.80;6.55;;;;;;;;;;5093808;28;20440;-75
2023/06/19 09:29:41;;;;;;;7.72;6.15;;;;;;;;;;5093746;28;20043;-76
2023/06/19 09:32:20;;;;;;;7.65;5.75;;;;;;;;;;5093892;28;20096;-77
2023/06/19 09:34:47;;;;;;;10.32;6.13;;;;;;;;;;5094129;28;20024;-76
2023/06/19 09:37:13;;;;;;;7.15;5.90;;;;;;;;;;5093647;28;20111;-76
2023/06/19 09:39:39;;;;;;;9.18;5.78;;;;;;;;;;5104131;28;20030;-75
2023/06/19 09:42:09;;;;;;;6.35;5.70;;;;;;;;;;5114101;28;20024;-76
2023/06/19 09:44:42;;;;;;;7.53;6.18;;;;;;;;;;5114034;28;20031;-77
2023/06/19 09:47:18;;;;;;;6.68;5.30;;;;;;;;;;5113670;28;20512;-76
2023/06/19 09:49:49;;;;;;;7.05;5.38;;;;;;;;;;5113862;28;20106;-75
2023/06/19 09:52:15;;;;;;;7.28;5.50;;;;;;;;;;5113909;28;20024;-76
2023/06/19 09:54:43;;;;;;;8.32;5.95;;;;;;;;;;5113680;28;20035;-77
2023/06/19 09:57:10;;;;;;;8.05;6.00;;;;;;;;;;5113780;28;20026;-76
2023/06/19 09:59:38;;;;;;;6.60;5.85;;;;;;;;;;5113941;28;20031;-76
2023/06/19 10:02:06;;;;;;;9.23;6.00;;;;;;;;;;5113665;28;20110;-75
2023/06/19 10:04:45;;;;;;;6.63;5.03;;;;;;;;;;5098672;28;20020;-75
2023/06/19 10:07:23;;;;;;;9.27;5.55;;;;;;;;;;5074672;28;20024;-76
2023/06/19 10:10:24;;;;;;;8.15;5.75;;;;;;;;;;5092904;28;20103;-76
2023/06/19 10:12:51;;;;;;;9.23;6.10;;;;;;;;;;5072882;28;20032;-76
2023/06/19 10:15:21;;;;;;;7.20;5.90;;;;;;;;;;5080450;28;20032;-76
2023/06/19 10:17:53;;;;;;;7.15;5.95;;;;;;;;;;5092815;28;20533;-76
2023/06/19 10:20:24;;;;;;;6.97;5.85;;;;;;;;;;5092849;28;20036;-75
2023/06/19 10:22:56;;;;;;;14.13;6.47;;;;;;;;;;5092751;28;20020;-75
2023/06/19 10:25:28;;;;;;;7.53;6.13;;;;;;;;;;5093018;28;20028;-76
2023/06/19 10:27:54;;;;;;;9.50;6.03;;;;;;;;;;5092263;28;20027;-75
2023/06/19 10:30:20;;;;;;;6.80;5.82;;;;;;;;;;5093063;28;20023;-78
2023/06/19 10:32:46;;;;;;;11.27;6.15;;;;;;;;;;5092249;28;20367;-74
2023/06/19 10:35:12;;;;;;;8.05;6.18;;;;;;;;;;5092850;28;20020;-76
2023/06/19 10:37:38;;;;;;;6.22;5.20;;;;;;;;;;5092401;28;20020;-74
2023/06/19 10:40:09;;;;;;;9.35;6.18;;;;;;;;;;5106792;28;20100;-73
2023/06/19 10:42:36;;;;;;;6.93;6.15;;;;;;;;;;5112952;28;20467;-73
2023/06/19 10:45:13;;;;;;;9.27;6.60;;;;;;;;;;5112904;28;20017;-75
2023/06/19 10:47:40;;;;;;;7.10;6.00;;;;;;;;;;5112763;28;20499;-75
2023/06/19 10:50:12;;;;;;;8.57;6.55;;;;;;;;;;5115251;28;20034;-73
2023/06/19 10:52:45;;;;;;;9.73;6.60;;;;;;;;;;5113622;28;20032;-75
2023/06/19 10:55:12;;;;;;;7.38;6.25;;;;;;;;;;5113014;28;20151;-75
2023/06/19 10:57:38;;;;;;;6.88;6.10;;;;;;;;;;5112771;28;20492;-75
2023/06/19 11:00:11;;;;;;;7.63;6.22;;;;;;;;;;5112779;28;20027;-72
2023/06/19 11:02:39;;;;;;;8.07;6.05;;;;;;;;;;5112567;28;20020;-75
2023/06/19 11:05:05;;;;;;;6.90;6.20;;;;;;;;;;5074970;28;20390;-74
2023/06/19 11:07:31;;;;;;;11.35;6.72;;;;;;;;;;5091993;28;20040;-76
2023/06/19 11:09:57;;;;;;;9.20;6.57;;;;;;;;;;5091912;28;20059;-71
2023/06/19 11:12:23;;;;;;;15.32;6.72;;;;;;;;;;5092216;28;20105;-70
2023/06/19 11:14:49;;;;;;;10.80;6.10;;;;;;;;;;5092227;28;20111;-75
2023/06/19 11:17:15;;;;;;;13.05;6.07;;;;;;;;;;5092238;28;20024;-73
2023/06/19 11:19:43;;;;;;;10.95;6.85;;;;;;;;;;5092089;28;20024;-75
2023/06/19 11:22:09;;;;;;;8.25;5.80;;;;;;;;;;5091719;28;20028;-73
2023/06/19 11:24:35;;;;;;;8.90;6.55;;;;;;;;;;5091882;28;20111;-75
2023/06/19 11:27:00;;;;;;;11.38;6.07;;;;;;;;;;5091927;28;20483;-74
2023/06/19 11:29:28;;;;;;;6.10;5.50;;;;;;;;;;5092161;28;20050;-76
2023/06/19 11:32:06;;;;;;;6.93;6.15;;;;;;;;;;5073853;28;20420;-72
2023/06/19 11:34:36;;;;;;;7.38;5.75;;;;;;;;;;5091670;28;20035;-75
2023/06/19 11:37:22;;;;;;;;;;;;;;;;;;5092119;28;20085;-75
2023/06/19 11:39:48;;;;;;;8.15;5.68;;;;;;;;;;5084951;28;20276;-76
2023/06/19 11:42:19;;;;;;;7.65;5.40;;;;;;;;;;5112334;28;20438;-74
2023/06/19 11:45:02;;;;;;;7.18;5.72;;;;;;;;;;5112935;28;20024;-76
2023/06/19 11:47:30;;;;;;;6.65;5.95;;;;;;;;;;5075404;28;20048;-74
2023/06/19 11:49:55;;;;;;;8.82;5.38;;;;;;;;;;5075230;28;20058;-74
2023/06/19 11:52:21;;;;;;;6.97;5.72;;;;;;;;;;5075281;28;20121;-76
2023/06/19 11:54:46;;;;;;;11.35;6.72;;;;;;;;;;5075403;28;20028;-76
2023/06/19 11:57:12;;;;;;;7.80;5.97;;;;;;;;;;5075325;28;20434;-76
2023/06/19 11:59:41;;;;;;;9.63;6.78;;;;;;;;;;5075411;28;20025;-76
2023/06/19 12:02:08;;;;;;;7.20;5.80;;;;;;;;;;5075219;28;20028;-76
2023/06/19 12:04:34;;;;;;;6.65;5.80;;;;;;;;;;5060042;28;20028;-75
2023/06/19 12:07:00;;;;;;;12.60;6.45;;;;;;;;;;5054901;28;20087;-76
2023/06/19 12:09:25;;;;;;;8.15;5.72;;;;;;;;;;5055174;28;20393;-76
2023/06/19 12:11:51;;;;;;;10.18;6.63;;;;;;;;;;5054976;28;20040;-75
2023/06/19 12:14:18;;;;;;;9.70;6.22;;;;;;;;;;5055215;28;20079;-75
2023/06/19 12:16:45;;;;;;;12.18;5.55;;;;;;;;;;5054946;28;20033;-76
2023/06/19 12:19:10;;;;;;;7.32;5.50;;;;;;;;;;5054749;28;20033;-76
2023/06/19 12:21:36;;;;;;;9.55;6.07;;;;;;;;;;5054620;28;20382;-75
2023/06/19 12:24:01;;;;;;;7.97;5.95;;;;;;;;;;5054079;28;20029;-76
2023/06/19 12:26:27;;;;;;;6.95;5.82;;;;;;;;;;5054735;28;20028;-75
2023/06/19 12:28:52;;;;;;;9.85;6.40;;;;;;;;;;5054979;28;20027;-72
2023/06/19 12:31:18;;;;;;;6.47;5.82;;;;;;;;;;5054679;28;20030;-70
2023/06/19 12:33:44;;;;;;;10.68;6.35;;;;;;;;;;5053208;28;20100;-75
2023/06/19 12:36:14;;;;;;;6.45;5.18;;;;;;;;;;5054642;28;20025;-75
2023/06/19 12:38:40;;;;;;;6.70;5.43;;;;;;;;;;5056295;28;20021;-74
2023/06/19 12:41:06;;;;;;;7.25;5.65;;;;;;;;;;5074436;28;20386;-76
2023/06/19 12:43:32;;;;;;;6.05;5.45;;;;;;;;;;5074499;28;20028;-76
2023/06/19 12:46:01;;;;;;;6.50;5.90;;;;;;;;;;5091208;28;20047;-76
2023/06/19 12:48:27;;;;;;;7.05;5.70;;;;;;;;;;5114809;28;20035;-76
2023/06/19 12:50:52;;;;;;;6.88;5.72;;;;;;;;;;5115097;28;20156;-75
2023/06/19 12:53:18;;;;;;;5.82;5.22;;;;;;;;;;5114985;28;20028;-75
2023/06/19 12:55:43;;;;;;;6.60;5.50;;;;;;;;;;5114210;28;20031;-76
2023/06/19 12:58:10;;;;;;;7.20;5.70;;;;;;;;;;5114773;28;20461;-76
2023/06/19 13:00:37;;;;;;;7.63;5.63;;;;;;;;;;5103140;28;20020;-75
2023/06/19 13:03:02;;;;;;;7.05;5.47;;;;;;;;;;5094157;28;20058;-76
2023/06/19 13:05:28;;;;;;;8.77;5.30;;;;;;;;;;5094338;28;20051;-76
2023/06/19 13:07:53;;;;;;;6.60;5.22;;;;;;;;;;5093983;28;20031;-73
2023/06/19 13:10:19;;;;;;;5.80;4.97;;;;;;;;;;5094144;28;20047;-71
2023/06/19 13:12:44;;;;;;;11.52;5.65;;;;;;;;;;5094204;28;20039;-69
2023/06/19 13:15:10;;;;;;;5.93;5.00;;;;;;;;;;5093978;28;20039;-73
2023/06/19 13:17:35;;;;;;;6.15;4.95;;;;;;;;;;5093491;28;20026;-71
2023/06/19 13:20:01;;;;;;;7.80;5.55;;;;;;;;;;5093841;28;20030;-66
2023/06/19 13:22:26;;;;;;;7.15;5.05;;;;;;;;;;5094096;28;20439;-75
2023/06/19 13:24:52;;;;;;;7.50;5.13;;;;;;;;;;5093732;28;20157;-70
2023/06/19 13:27:18;;;;;;;8.13;5.20;;;;;;;;;;5093685;28;20024;-72
2023/06/19 13:29:43;;;;;;;7.55;5.75;;;;;;;;;;5093682;28;20020;-73
2023/06/19 13:32:09;;;;;;;6.25;5.45;;;;;;;;;;5093628;28;20103;-70
2023/06/19 13:34:34;;;;;;;8.93;5.70;;;;;;;;;;5093730;28;20024;-70
2023/06/19 13:37:00;;;;;;;15.43;5.50;;;;;;;;;;5075142;28;20027;-74
2023/06/19 13:39:25;;;;;;;7.68;5.18;;;;;;;;;;5102380;28;20028;-72
2023/06/19 13:41:51;;;;;;;11.73;5.05;;;;;;;;;;5113837;28;20168;-76
2023/06/19 13:44:17;;;;;;;9.18;4.90;;;;;;;;;;5113934;28;20042;-75
2023/06/19 13:46:43;;;;;;;6.13;4.70;;;;;;;;;;5113571;28;20463;-76
2023/06/19 13:49:08;;;;;;;6.95;4.53;;;;;;;;;;5095738;28;20024;-71
2023/06/19 13:51:34;;;;;;;9.07;4.90;;;;;;;;;;5113533;28;20042;-67
2023/06/19 13:53:59;;;;;;;11.07;5.10;;;;;;;;;;5113486;28;20035;-73
2023/06/19 13:56:24;;;;;;;10.82;6.22;;;;;;;;;;5113728;28;20031;-67
2023/06/19 13:58:50;;;;;;;7.35;5.10;;;;;;;;;;5113632;28;20031;-71
2023/06/19 14:01:16;;;;;;;6.63;5.35;;;;;;;;;;5113351;28;20031;-74
2023/06/19 14:03:42;;;;;;;5.35;4.55;;;;;;;;;;5105380;28;20051;-74
2023/06/19 14:06:07;;;;;;;6.15;4.82;;;;;;;;;;5092880;28;20024;-73
2023/06/19 14:08:33;;;;;;;5.55;4.75;;;;;;;;;;5092460;28;20027;-72
2023/06/19 14:10:59;;;;;;;6.40;4.93;;;;;;;;;;5093086;28;20024;-74
2023/06/19 14:13:24;;;;;;;7.20;5.15;;;;;;;;;;5093146;28;20032;-74
2023/06/19 14:15:50;;;;;;;8.73;5.10;;;;;;;;;;5092583;28;20435;-73
2023/06/19 14:18:16;;;;;;;7.30;5.32;;;;;;;;;;5092605;28;20085;-75
2023/06/19 14:20:41;;;;;;;6.53;5.38;;;;;;;;;;5092715;28;20032;-74
2023/06/19 14:23:07;;;;;;;7.65;5.63;;;;;;;;;;5092651;28;20750;-74
2023/06/19 14:25:34;;;;;;;5.75;5.05;;;;;;;;;;5092799;28;20446;-74
2023/06/19 14:28:00;;;;;;;7.40;5.60;;;;;;;;;;5092502;28;20036;-74
2023/06/19 14:30:25;;;;;;;6.18;4.97;;;;;;;;;;5092425;28;20028;-74
2023/06/19 14:32:51;;;;;;;6.03;4.80;;;;;;;;;;5092549;28;20054;-74